KCBE/CBE METAR and TAF weather

Enter ICAO airport designator
Station Type Date Time Source
KCBE METAR 2021/03/03 02:15 UTC NOAA

KCBE 030215Z AUTO 00000KT 10SM CLR 00/M09 A3016 RMK AO2 T10001093


Station Type Date Time Source
KCBE Decoded METAR 2021/03/03 02:15 UTC NOAA

Cumberland, Greater Cumberland Regional Airport, MD, United States (KCBE) 39-36-55N 078-45-39W
Mar 02, 2021 - 09:15 PM EST / 2021.03.03 0215 UTC
Wind: Calm:0
Visibility: 10 mile(s):0
Sky conditions: clear
Temperature: 32.0 F (0.0 C)
Dew Point: 15.3 F (-9.3 C)
Relative Humidity: 49%
Pressure (altimeter): 30.16 in. Hg (1021 hPa)
ob: KCBE 030215Z AUTO 00000KT 10SM CLR 00/M09 A3016 RMK AO2 T10001093
cycle: 2

Station Type Date Time Source
KCBE TAF UTC NOAA

Error!

Example: see airport list